sensor_id;sensor_type;location;lat;lon;timestamp;pressure;altitude;pressure_sealevel;temperature;humidity
71970;BME280;59838;52.152;5.436;2023-02-28T00:01:31;103348.28;;;0.17;95.54
71970;BME280;59838;52.152;5.436;2023-02-28T00:03:58;103349.09;;;0.20;96.02
71970;BME280;59838;52.152;5.436;2023-02-28T00:06:28;103344.00;;;0.20;95.78
71970;BME280;59838;52.152;5.436;2023-02-28T00:08:55;103350.75;;;0.21;96.03
71970;BME280;59838;52.152;5.436;2023-02-28T00:11:21;103354.97;;;0.22;95.69
71970;BME280;59838;52.152;5.436;2023-02-28T00:13:50;103356.72;;;0.21;95.70
71970;BME280;59838;52.152;5.436;2023-02-28T00:16:19;103355.66;;;0.27;96.26
71970;BME280;59838;52.152;5.436;2023-02-28T00:18:47;103355.66;;;0.27;96.33
71970;BME280;59838;52.152;5.436;2023-02-28T00:21:14;103348.00;;;0.27;96.03
71970;BME280;59838;52.152;5.436;2023-02-28T00:23:43;103352.03;;;0.32;96.48
71970;BME280;59838;52.152;5.436;2023-02-28T00:26:10;103354.59;;;0.32;95.96
71970;BME280;59838;52.152;5.436;2023-02-28T00:28:36;103357.97;;;0.34;96.32
71970;BME280;59838;52.152;5.436;2023-02-28T00:31:03;103355.25;;;0.39;96.46
71970;BME280;59838;52.152;5.436;2023-02-28T00:33:29;103357.69;;;0.42;96.58
71970;BME280;59838;52.152;5.436;2023-02-28T00:36:07;103355.91;;;0.44;96.62
71970;BME280;59838;52.152;5.436;2023-02-28T00:38:34;103348.09;;;0.49;96.81
71970;BME280;59838;52.152;5.436;2023-02-28T00:41:01;103345.28;;;0.55;96.80
71970;BME280;59838;52.152;5.436;2023-02-28T00:43:32;103349.34;;;0.61;96.65
71970;BME280;59838;52.152;5.436;2023-02-28T00:46:02;103352.63;;;0.64;96.47
71970;BME280;59838;52.152;5.436;2023-02-28T00:48:29;103350.78;;;0.68;96.79
71970;BME280;59838;52.152;5.436;2023-02-28T00:50:56;103349.75;;;0.73;96.66
71970;BME280;59838;52.152;5.436;2023-02-28T00:53:22;103343.66;;;0.76;96.78
71970;BME280;59838;52.152;5.436;2023-02-28T00:55:50;103346.13;;;0.79;96.39
71970;BME280;59838;52.152;5.436;2023-02-28T00:58:16;103340.13;;;0.80;96.29
71970;BME280;59838;52.152;5.436;2023-02-28T01:00:43;103347.03;;;0.78;96.28
71970;BME280;59838;52.152;5.436;2023-02-28T01:03:17;103347.91;;;0.77;96.60
71970;BME280;59838;52.152;5.436;2023-02-28T01:05:44;103349.66;;;0.77;97.06
71970;BME280;59838;52.152;5.436;2023-02-28T01:08:12;103348.78;;;0.76;97.20
71970;BME280;59838;52.152;5.436;2023-02-28T01:10:38;103352.16;;;0.78;96.98
71970;BME280;59838;52.152;5.436;2023-02-28T01:13:05;103347.81;;;0.80;97.31
71970;BME280;59838;52.152;5.436;2023-02-28T01:15:32;103356.19;;;0.84;97.05
71970;BME280;59838;52.152;5.436;2023-02-28T01:17:59;103348.50;;;0.84;96.82
71970;BME280;59838;52.152;5.436;2023-02-28T01:20:25;103351.94;;;0.84;97.06
71970;BME280;59838;52.152;5.436;2023-02-28T01:22:52;103342.63;;;0.82;97.45
71970;BME280;59838;52.152;5.436;2023-02-28T01:25:18;103349.47;;;0.81;97.51
71970;BME280;59838;52.152;5.436;2023-02-28T01:27:45;103345.19;;;0.82;97.51
71970;BME280;59838;52.152;5.436;2023-02-28T01:30:12;103340.91;;;0.82;97.68
71970;BME280;59838;52.152;5.436;2023-02-28T01:32:38;103342.53;;;0.85;97.76
71970;BME280;59838;52.152;5.436;2023-02-28T01:35:05;103338.22;;;0.85;97.91
71970;BME280;59838;52.152;5.436;2023-02-28T01:37:31;103339.84;;;0.88;97.68
71970;BME280;59838;52.152;5.436;2023-02-28T01:39:58;103340.66;;;0.88;97.62
71970;BME280;59838;52.152;5.436;2023-02-28T01:42:24;103339.78;;;0.89;97.78
71970;BME280;59838;52.152;5.436;2023-02-28T01:45:22;103348.25;;;0.91;97.76
71970;BME280;59838;52.152;5.436;2023-02-28T01:47:48;103339.69;;;0.93;97.79
71970;BME280;59838;52.152;5.436;2023-02-28T01:50:23;103328.47;;;0.95;97.46
71970;BME280;59838;52.152;5.436;2023-02-28T01:52:53;103330.03;;;0.99;97.19
71970;BME280;59838;52.152;5.436;2023-02-28T01:55:23;103327.38;;;1.02;97.41
71970;BME280;59838;52.152;5.436;2023-02-28T01:57:56;103329.03;;;1.03;96.98
71970;BME280;59838;52.152;5.436;2023-02-28T02:00:26;103327.97;;;1.09;96.83
71970;BME280;59838;52.152;5.436;2023-02-28T02:02:59;103326.16;;;1.11;96.95
71970;BME280;59838;52.152;5.436;2023-02-28T02:05:29;103316.75;;;1.12;96.81
71970;BME280;59838;52.152;5.436;2023-02-28T02:08:02;103314.13;;;1.13;96.27
71970;BME280;59838;52.152;5.436;2023-02-28T02:10:33;103316.63;;;1.15;96.47
71970;BME280;59838;52.152;5.436;2023-02-28T02:18:49;103308.72;;;1.21;96.07
71970;BME280;59838;52.152;5.436;2023-02-28T02:21:47;103306.09;;;1.22;96.03
71970;BME280;59838;52.152;5.436;2023-02-28T02:35:49;103320.72;;;1.41;96.85
71970;BME280;59838;52.152;5.436;2023-02-28T02:38:35;103319.03;;;1.41;97.00
71970;BME280;59838;52.152;5.436;2023-02-28T02:44:10;103313.00;;;1.42;97.25
71970;BME280;59838;52.152;5.436;2023-02-28T02:46:42;103319.72;;;1.45;97.24
71970;BME280;59838;52.152;5.436;2023-02-28T02:49:15;103317.16;;;1.45;97.78
71970;BME280;59838;52.152;5.436;2023-02-28T02:51:46;103319.78;;;1.43;97.70
71970;BME280;59838;52.152;5.436;2023-02-28T02:54:17;103319.84;;;1.42;97.88
71970;BME280;59838;52.152;5.436;2023-02-28T02:56:49;103319.84;;;1.42;98.16
71970;BME280;59838;52.152;5.436;2023-02-28T02:59:20;103314.66;;;1.43;98.02
71970;BME280;59838;52.152;5.436;2023-02-28T03:01:54;103310.25;;;1.47;98.09
71970;BME280;59838;52.152;5.436;2023-02-28T03:04:24;103312.81;;;1.47;98.10
71970;BME280;59838;52.152;5.436;2023-02-28T03:06:51;103310.25;;;1.47;98.36
71970;BME280;59838;52.152;5.436;2023-02-28T03:09:25;103318.84;;;1.46;98.68
71970;BME280;59838;52.152;5.436;2023-02-28T03:11:54;103320.63;;;1.44;98.58
71970;BME280;59838;52.152;5.436;2023-02-28T03:14:40;103317.09;;;1.46;98.91
71970;BME280;59838;52.152;5.436;2023-02-28T03:17:30;103320.50;;;1.47;99.08
71970;BME280;59838;52.152;5.436;2023-02-28T03:20:06;103318.78;;;1.48;99.47
71970;BME280;59838;52.152;5.436;2023-02-28T03:25:18;103314.59;;;1.45;99.52
71970;BME280;59838;52.152;5.436;2023-02-28T03:28:00;103317.22;;;1.43;99.84
71970;BME280;59838;52.152;5.436;2023-02-28T03:33:14;103315.59;;;1.41;99.73
71970;BME280;59838;52.152;5.436;2023-02-28T03:35:47;103319.09;;;1.40;99.91
71970;BME280;59838;52.152;5.436;2023-02-28T03:40:51;103313.91;;;1.41;99.90
71970;BME280;59838;52.152;5.436;2023-02-28T03:43:25;103318.97;;;1.43;99.83
71970;BME280;59838;52.152;5.436;2023-02-28T03:45:54;103322.28;;;1.45;99.72
71970;BME280;59838;52.152;5.436;2023-02-28T03:48:33;103325.75;;;1.44;99.90
71970;BME280;59838;52.152;5.436;2023-02-28T03:51:03;103329.97;;;1.45;99.50
71970;BME280;59838;52.152;5.436;2023-02-28T03:53:39;103337.53;;;1.48;99.15
71970;BME280;59838;52.152;5.436;2023-02-28T03:56:18;103343.38;;;1.52;98.19
71970;BME280;59838;52.152;5.436;2023-02-28T03:58:53;103341.47;;;1.57;96.71
71970;BME280;59838;52.152;5.436;2023-02-28T04:01:28;103333.72;;;1.58;96.12
71970;BME280;59838;52.152;5.436;2023-02-28T04:03:57;103332.00;;;1.59;95.73
71970;BME280;59838;52.152;5.436;2023-02-28T04:06:24;103330.25;;;1.59;95.37
71970;BME280;59838;52.152;5.436;2023-02-28T04:08:51;103331.22;;;1.57;95.30
71970;BME280;59838;52.152;5.436;2023-02-28T04:11:31;103341.47;;;1.57;95.26
71970;BME280;59838;52.152;5.436;2023-02-28T04:13:58;103333.88;;;1.54;95.33
71970;BME280;59838;52.152;5.436;2023-02-28T04:16:25;103338.13;;;1.55;94.27
71970;BME280;59838;52.152;5.436;2023-02-28T04:19:04;103336.38;;;1.55;93.48
71970;BME280;59838;52.152;5.436;2023-02-28T04:21:36;103329.63;;;1.54;91.01
71970;BME280;59838;52.152;5.436;2023-02-28T04:24:06;103341.50;;;1.55;90.10
71970;BME280;59838;52.152;5.436;2023-02-28T04:26:35;103345.00;;;1.54;87.69
71970;BME280;59838;52.152;5.436;2023-02-28T04:29:04;103343.38;;;1.52;86.69
71970;BME280;59838;52.152;5.436;2023-02-28T04:31:31;103346.13;;;1.47;84.34
71970;BME280;59838;52.152;5.436;2023-02-28T04:33:58;103349.72;;;1.43;82.31
71970;BME280;59838;52.152;5.436;2023-02-28T04:36:24;103348.84;;;1.42;83.29
71970;BME280;59838;52.152;5.436;2023-02-28T04:38:51;103351.41;;;1.42;83.20
71970;BME280;59838;52.152;5.436;2023-02-28T04:41:18;103345.59;;;1.39;83.29
71970;BME280;59838;52.152;5.436;2023-02-28T04:43:45;103354.25;;;1.36;83.53
71970;BME280;59838;52.152;5.436;2023-02-28T04:46:11;103357.69;;;1.35;83.65
71970;BME280;59838;52.152;5.436;2023-02-28T04:48:39;103349.22;;;1.33;84.03
71970;BME280;59838;52.152;5.436;2023-02-28T04:51:11;103354.34;;;1.33;84.41
71970;BME280;59838;52.152;5.436;2023-02-28T04:53:39;103343.25;;;1.33;84.24
71970;BME280;59838;52.152;5.436;2023-02-28T04:56:07;103346.97;;;1.25;84.31
71970;BME280;59838;52.152;5.436;2023-02-28T04:58:34;103348.88;;;1.20;84.02
71970;BME280;59838;52.152;5.436;2023-02-28T05:01:06;103351.59;;;1.16;84.18
71970;BME280;59838;52.152;5.436;2023-02-28T05:03:39;103343.28;;;1.11;84.72
71970;BME280;59838;52.152;5.436;2023-02-28T05:06:09;103347.53;;;1.10;85.63
71970;BME280;59838;52.152;5.436;2023-02-28T05:08:36;103342.47;;;1.08;85.88
71970;BME280;59838;52.152;5.436;2023-02-28T05:11:07;103347.69;;;1.07;86.64
71970;BME280;59838;52.152;5.436;2023-02-28T05:13:38;103337.50;;;1.05;87.38
71970;BME280;59838;52.152;5.436;2023-02-28T05:16:04;103345.13;;;1.07;87.80
71970;BME280;59838;52.152;5.436;2023-02-28T05:18:31;103356.19;;;1.07;88.41
71970;BME280;59838;52.152;5.436;2023-02-28T05:20:59;103354.56;;;1.05;88.85
71970;BME280;59838;52.152;5.436;2023-02-28T05:23:28;103354.63;;;1.03;89.31
71970;BME280;59838;52.152;5.436;2023-02-28T05:25:55;103359.91;;;0.99;89.65
71970;BME280;59838;52.152;5.436;2023-02-28T05:28:22;103356.69;;;0.94;90.22
71970;BME280;59838;52.152;5.436;2023-02-28T05:30:48;103356.75;;;0.92;90.59
71970;BME280;59838;52.152;5.436;2023-02-28T05:33:15;103361.03;;;0.91;90.49
71970;BME280;59838;52.152;5.436;2023-02-28T05:35:42;103355.09;;;0.91;90.89
71970;BME280;59838;52.152;5.436;2023-02-28T05:38:11;103357.72;;;0.89;91.20
71970;BME280;59838;52.152;5.436;2023-02-28T05:40:38;103361.09;;;0.90;91.47
71970;BME280;59838;52.152;5.436;2023-02-28T05:43:05;103349.19;;;0.89;91.71
71970;BME280;59838;52.152;5.436;2023-02-28T05:45:35;103351.88;;;0.86;92.23
71970;BME280;59838;52.152;5.436;2023-02-28T05:48:02;103354.59;;;0.81;92.35
71970;BME280;59838;52.152;5.436;2023-02-28T05:50:28;103361.47;;;0.79;92.63
71970;BME280;59838;52.152;5.436;2023-02-28T05:52:55;103358.16;;;0.77;92.62
71970;BME280;59838;52.152;5.436;2023-02-28T05:55:21;103368.50;;;0.74;92.76
71970;BME280;59838;52.152;5.436;2023-02-28T05:57:48;103366.00;;;0.72;93.60
71970;BME280;59838;52.152;5.436;2023-02-28T06:00:14;103362.66;;;0.70;93.46
71970;BME280;59838;52.152;5.436;2023-02-28T06:02:42;103355.81;;;0.71;93.70
71970;BME280;59838;52.152;5.436;2023-02-28T06:05:16;103357.59;;;0.69;93.85
71970;BME280;59838;52.152;5.436;2023-02-28T06:07:43;103359.28;;;0.70;94.16
71970;BME280;59838;52.152;5.436;2023-02-28T06:10:11;103353.34;;;0.68;94.38
71970;BME280;59838;52.152;5.436;2023-02-28T06:12:37;103366.25;;;0.65;94.77
71970;BME280;59838;52.152;5.436;2023-02-28T06:15:04;103361.28;;;0.62;95.24
71970;BME280;59838;52.152;5.436;2023-02-28T06:17:33;103359.66;;;0.59;95.01
71970;BME280;59838;52.152;5.436;2023-02-28T06:20:00;103355.34;;;0.60;95.45
71970;BME280;59838;52.152;5.436;2023-02-28T06:22:26;103352.78;;;0.60;95.52
71970;BME280;59838;52.152;5.436;2023-02-28T06:24:53;103350.19;;;0.61;96.01
71970;BME280;59838;52.152;5.436;2023-02-28T06:27:20;103344.13;;;0.64;96.02
71970;BME280;59838;52.152;5.436;2023-02-28T06:29:48;103345.78;;;0.65;96.10
71970;BME280;59838;52.152;5.436;2023-02-28T06:32:14;103347.47;;;0.66;96.16
71970;BME280;59838;52.152;5.436;2023-02-28T06:34:41;103351.97;;;0.59;96.11
71970;BME280;59838;52.152;5.436;2023-02-28T06:37:10;103346.13;;;0.56;95.95
71970;BME280;59838;52.152;5.436;2023-02-28T06:39:36;103357.19;;;0.56;96.42
71970;BME280;59838;52.152;5.436;2023-02-28T06:42:03;103343.69;;;0.52;96.81
71970;BME280;59838;52.152;5.436;2023-02-28T06:44:30;103352.19;;;0.53;97.29
71970;BME280;59838;52.152;5.436;2023-02-28T06:47:03;103356.25;;;0.59;97.21
71970;BME280;59838;52.152;5.436;2023-02-28T06:49:32;103343.47;;;0.59;97.35
71970;BME280;59838;52.152;5.436;2023-02-28T06:51:59;103346.84;;;0.59;97.62
71970;BME280;59838;52.152;5.436;2023-02-28T06:54:25;103353.59;;;0.62;97.34
71970;BME280;59838;52.152;5.436;2023-02-28T06:56:52;103356.38;;;0.56;97.44
71970;BME280;59838;52.152;5.436;2023-02-28T06:59:21;103365.81;;;0.53;98.15
71970;BME280;59838;52.152;5.436;2023-02-28T07:01:47;103359.13;;;0.49;97.84
71970;BME280;59838;52.152;5.436;2023-02-28T07:04:14;103368.38;;;0.53;98.33
71970;BME280;59838;52.152;5.436;2023-02-28T07:06:41;103373.50;;;0.53;98.44
71970;BME280;59838;52.152;5.436;2023-02-28T07:09:07;103364.16;;;0.52;98.99
71970;BME280;59838;52.152;5.436;2023-02-28T07:11:37;103374.38;;;0.52;98.76
71970;BME280;59838;52.152;5.436;2023-02-28T07:14:03;103369.25;;;0.52;98.86
71970;BME280;59838;52.152;5.436;2023-02-28T07:16:30;103364.81;;;0.58;99.47
71970;BME280;59838;52.152;5.436;2023-02-28T07:18:56;103364.72;;;0.61;99.66
71970;BME280;59838;52.152;5.436;2023-02-28T07:21:23;103370.53;;;0.64;99.42
71970;BME280;59838;52.152;5.436;2023-02-28T07:23:50;103375.75;;;0.61;99.30
71970;BME280;59838;52.152;5.436;2023-02-28T07:26:18;103377.50;;;0.61;99.68
71970;BME280;59838;52.152;5.436;2023-02-28T07:28:47;103380.16;;;0.58;99.80
71970;BME280;59838;52.152;5.436;2023-02-28T07:31:15;103378.44;;;0.58;100.00
71970;BME280;59838;52.152;5.436;2023-02-28T07:33:42;103375.81;;;0.60;100.00
71970;BME280;59838;52.152;5.436;2023-02-28T07:36:15;103376.50;;;0.65;100.00
71970;BME280;59838;52.152;5.436;2023-02-28T07:38:43;103373.78;;;0.69;100.00
71970;BME280;59838;52.152;5.436;2023-02-28T07:41:15;103378.06;;;0.69;100.00
71970;BME280;59838;52.152;5.436;2023-02-28T07:43:41;103383.94;;;0.71;100.00
71970;BME280;59838;52.152;5.436;2023-02-28T07:46:10;103381.38;;;0.71;100.00
71970;BME280;59838;52.152;5.436;2023-02-28T07:48:38;103384.84;;;0.70;100.00
71970;BME280;59838;52.152;5.436;2023-02-28T07:51:05;103378.72;;;0.74;100.00
71970;BME280;59838;52.152;5.436;2023-02-28T07:53:32;103390.59;;;0.77;100.00
71970;BME280;59838;52.152;5.436;2023-02-28T07:56:00;103379.28;;;0.82;100.00
71970;BME280;59838;52.152;5.436;2023-02-28T07:58:28;103385.81;;;0.91;100.00
71970;BME280;59838;52.152;5.436;2023-02-28T08:00:56;103376.78;;;1.04;100.00
71970;BME280;59838;52.152;5.436;2023-02-28T08:03:23;103386.97;;;1.06;100.00
71970;BME280;59838;52.152;5.436;2023-02-28T08:05:50;103389.63;;;1.03;100.00
71970;BME280;59838;52.152;5.436;2023-02-28T08:08:18;103388.88;;;1.01;100.00
71970;BME280;59838;52.152;5.436;2023-02-28T08:10:45;103398.19;;;1.02;100.00
71970;BME280;59838;52.152;5.436;2023-02-28T08:13:11;103399.16;;;0.99;100.00
71970;BME280;59838;52.152;5.436;2023-02-28T08:15:40;103403.19;;;1.05;100.00
71970;BME280;59838;52.152;5.436;2023-02-28T08:18:07;103410.00;;;1.06;100.00
71970;BME280;59838;52.152;5.436;2023-02-28T08:20:37;103410.78;;;1.08;100.00
71970;BME280;59838;52.152;5.436;2023-02-28T08:23:03;103414.97;;;1.11;100.00
71970;BME280;59838;52.152;5.436;2023-02-28T08:25:30;103410.22;;;1.23;100.00
71970;BME280;59838;52.152;5.436;2023-02-28T08:27:59;103411.88;;;1.24;100.00
71970;BME280;59838;52.152;5.436;2023-02-28T08:30:27;103403.06;;;1.32;100.00
71970;BME280;59838;52.152;5.436;2023-02-28T08:32:54;103413.75;;;1.43;100.00
71970;BME280;59838;52.152;5.436;2023-02-28T08:35:21;103400.03;;;1.44;99.13
71970;BME280;59838;52.152;5.436;2023-02-28T08:37:48;103401.59;;;1.48;98.60
71970;BME280;59838;52.152;5.436;2023-02-28T08:40:16;103410.69;;;1.55;97.69
71970;BME280;59838;52.152;5.436;2023-02-28T08:42:45;103407.13;;;1.59;96.88
71970;BME280;59838;52.152;5.436;2023-02-28T08:45:13;103403.53;;;1.63;95.31
71970;BME280;59838;52.152;5.436;2023-02-28T08:47:40;103388.72;;;1.72;94.57
71970;BME280;59838;52.152;5.436;2023-02-28T08:50:07;103382.91;;;1.89;94.32
71970;BME280;59838;52.152;5.436;2023-02-28T08:52:34;103388.25;;;2.05;93.31
71970;BME280;59838;52.152;5.436;2023-02-28T08:55:00;103404.25;;;2.10;91.00
71970;BME280;59838;52.152;5.436;2023-02-28T08:57:27;103394.88;;;2.09;88.20
71970;BME280;59838;52.152;5.436;2023-02-28T08:59:53;103399.97;;;2.10;86.41
71970;BME280;59838;52.152;5.436;2023-02-28T09:02:20;103397.22;;;2.15;85.38
71970;BME280;59838;52.152;5.436;2023-02-28T09:04:46;103398.56;;;2.24;84.10
71970;BME280;59838;52.152;5.436;2023-02-28T09:07:13;103393.03;;;2.33;82.69
71970;BME280;59838;52.152;5.436;2023-02-28T09:09:40;103396.53;;;2.51;81.04
71970;BME280;59838;52.152;5.436;2023-02-28T09:12:24;103392.84;;;2.77;79.41
71970;BME280;59838;52.152;5.436;2023-02-28T09:14:51;103395.41;;;2.96;76.57
71970;BME280;59838;52.152;5.436;2023-02-28T09:17:19;103391.88;;;3.18;73.92
71970;BME280;59838;52.152;5.436;2023-02-28T09:19:47;103396.13;;;3.55;74.89
71970;BME280;59838;52.152;5.436;2023-02-28T09:22:14;103388.50;;;3.89;73.56
71970;BME280;59838;52.152;5.436;2023-02-28T09:24:41;103392.91;;;3.87;68.16
71970;BME280;59838;52.152;5.436;2023-02-28T09:27:07;103388.13;;;3.79;65.70
71970;BME280;59838;52.152;5.436;2023-02-28T09:29:34;103387.69;;;3.88;64.74
71970;BME280;59838;52.152;5.436;2023-02-28T09:32:01;103389.81;;;3.97;66.19
71970;BME280;59838;52.152;5.436;2023-02-28T09:34:28;103385.72;;;3.93;58.98
71970;BME280;59838;52.152;5.436;2023-02-28T09:36:57;103392.16;;;3.84;58.42
71970;BME280;59838;52.152;5.436;2023-02-28T09:39:24;103393.59;;;3.73;57.96
71970;BME280;59838;52.152;5.436;2023-02-28T09:41:54;103391.84;;;3.73;55.19
71970;BME280;59838;52.152;5.436;2023-02-28T09:44:33;103394.94;;;3.80;58.57
71970;BME280;59838;52.152;5.436;2023-02-28T09:47:47;103397.91;;;3.90;53.06
71970;BME280;59838;52.152;5.436;2023-02-28T09:49:57;103403.41;;;3.82;54.49
71970;BME280;59838;52.152;5.436;2023-02-28T09:52:30;103404.69;;;3.73;54.21
71970;BME280;59838;52.152;5.436;2023-02-28T09:55:19;103410.81;;;3.71;54.40
71970;BME280;59838;52.152;5.436;2023-02-28T09:57:46;103402.66;;;3.80;53.83
71970;BME280;59838;52.152;5.436;2023-02-28T10:00:18;103403.72;;;3.93;54.28
71970;BME280;59838;52.152;5.436;2023-02-28T10:03:25;103403.06;;;4.07;54.97
71970;BME280;59838;52.152;5.436;2023-02-28T10:08:30;103395.47;;;4.21;54.86
71970;BME280;59838;52.152;5.436;2023-02-28T10:11:00;103393.81;;;4.20;53.99
71970;BME280;59838;52.152;5.436;2023-02-28T10:13:53;103391.00;;;4.25;54.35
71970;BME280;59838;52.152;5.436;2023-02-28T10:16:36;103392.16;;;4.53;54.52
71970;BME280;59838;52.152;5.436;2023-02-28T10:21:46;103381.47;;;4.61;51.46
71970;BME280;59838;52.152;5.436;2023-02-28T10:24:32;103380.03;;;4.55;51.82
71970;BME280;59838;52.152;5.436;2023-02-28T10:27:12;103381.38;;;4.29;50.93
71970;BME280;59838;52.152;5.436;2023-02-28T10:29:42;103371.53;;;4.19;52.33
71970;BME280;59838;52.152;5.436;2023-02-28T10:32:11;103382.88;;;4.50;51.60
71970;BME280;59838;52.152;5.436;2023-02-28T10:34:40;103384.50;;;4.51;49.04
71970;BME280;59838;52.152;5.436;2023-02-28T10:37:07;103377.09;;;4.45;49.79
71970;BME280;59838;52.152;5.436;2023-02-28T10:39:35;103375.81;;;4.54;51.29
71970;BME280;59838;52.152;5.436;2023-02-28T10:42:04;103378.63;;;4.49;50.70
71970;BME280;59838;52.152;5.436;2023-02-28T10:44:30;103375.88;;;4.52;49.15
71970;BME280;59838;52.152;5.436;2023-02-28T10:46:57;103374.31;;;4.66;49.79
71970;BME280;59838;52.152;5.436;2023-02-28T10:49:26;103386.69;;;4.59;49.54
71970;BME280;59838;52.152;5.436;2023-02-28T10:51:59;103369.09;;;4.67;50.72
71970;BME280;59838;52.152;5.436;2023-02-28T10:54:34;103363.16;;;4.83;50.47
71970;BME280;59838;52.152;5.436;2023-02-28T10:57:22;103365.44;;;4.87;49.02
71970;BME280;59838;52.152;5.436;2023-02-28T11:00:14;103357.81;;;4.86;49.29
71970;BME280;59838;52.152;5.436;2023-02-28T11:03:25;103357.56;;;5.06;49.86
71970;BME280;59838;52.152;5.436;2023-02-28T11:05:54;103360.63;;;5.13;49.20
71970;BME280;59838;52.152;5.436;2023-02-28T11:08:21;103365.69;;;5.15;48.37
71970;BME280;59838;52.152;5.436;2023-02-28T11:10:54;103358.38;;;5.07;50.30
71970;BME280;59838;52.152;5.436;2023-02-28T11:13:27;103347.59;;;5.16;49.71
71970;BME280;59838;52.152;5.436;2023-02-28T11:15:58;103345.56;;;5.21;50.48
71970;BME280;59838;52.152;5.436;2023-02-28T11:18:48;103343.75;;;5.23;49.44
71970;BME280;59838;52.152;5.436;2023-02-28T11:21:24;103348.94;;;5.38;46.65
71970;BME280;59838;52.152;5.436;2023-02-28T11:23:57;103342.09;;;5.22;48.01
71970;BME280;59838;52.152;5.436;2023-02-28T11:26:47;103344.41;;;5.43;49.73
71970;BME280;59838;52.152;5.436;2023-02-28T11:29:24;103342.81;;;5.40;47.84
71970;BME280;59838;52.152;5.436;2023-02-28T11:34:42;103334.59;;;5.34;48.63
71970;BME280;59838;52.152;5.436;2023-02-28T11:37:15;103334.50;;;5.35;46.96
71970;BME280;59838;52.152;5.436;2023-02-28T11:39:43;103330.91;;;5.38;47.45
71970;BME280;59838;52.152;5.436;2023-02-28T11:42:26;103336.06;;;5.38;46.82
71970;BME280;59838;52.152;5.436;2023-02-28T11:53:39;103322.19;;;5.40;46.65
71970;BME280;59838;52.152;5.436;2023-02-28T11:56:32;103320.47;;;5.55;47.44
71970;BME280;59838;52.152;5.436;2023-02-28T11:59:11;103317.56;;;5.61;47.33
71970;BME280;59838;52.152;5.436;2023-02-28T12:07:15;103312.59;;;5.73;48.32
71970;BME280;59838;52.152;5.436;2023-02-28T12:12:44;103304.88;;;5.87;48.09
71970;BME280;59838;52.152;5.436;2023-02-28T12:15:32;103310.75;;;5.75;47.57
71970;BME280;59838;52.152;5.436;2023-02-28T12:18:24;103300.16;;;5.79;47.74
71970;BME280;59838;52.152;5.436;2023-02-28T12:26:50;103295.28;;;5.75;48.15
71970;BME280;59838;52.152;5.436;2023-02-28T12:29:33;103294.47;;;5.89;45.62
71970;BME280;59838;52.152;5.436;2023-02-28T12:32:30;103283.25;;;5.90;47.24
71970;BME280;59838;52.152;5.436;2023-02-28T12:35:06;103276.16;;;5.93;46.11
71970;BME280;59838;52.152;5.436;2023-02-28T12:40:13;103295.56;;;5.84;45.60
71970;BME280;59838;52.152;5.436;2023-02-28T12:42:45;103291.25;;;5.85;45.80
71970;BME280;59838;52.152;5.436;2023-02-28T12:45:26;103290.50;;;5.83;46.85
71970;BME280;59838;52.152;5.436;2023-02-28T12:48:00;103284.25;;;5.87;48.39
71970;BME280;59838;52.152;5.436;2023-02-28T12:50:27;103281.03;;;5.83;46.79
71970;BME280;59838;52.152;5.436;2023-02-28T12:55:40;103279.16;;;5.71;46.15
71970;BME280;59838;52.152;5.436;2023-02-28T13:06:40;103276.50;;;5.87;46.13
71970;BME280;59838;52.152;5.436;2023-02-28T13:09:17;103269.50;;;5.89;46.78
71970;BME280;59838;52.152;5.436;2023-02-28T13:11:46;103258.72;;;5.82;46.73
71970;BME280;59838;52.152;5.436;2023-02-28T13:17:03;103259.00;;;5.92;45.20
71970;BME280;59838;52.152;5.436;2023-02-28T13:19:39;103252.47;;;5.86;44.74
71970;BME280;59838;52.152;5.436;2023-02-28T13:22:38;103257.22;;;5.93;46.08
71970;BME280;59838;52.152;5.436;2023-02-28T13:28:10;103259.56;;;5.97;45.79
71970;BME280;59838;52.152;5.436;2023-02-28T13:38:49;103245.81;;;5.82;45.71
71970;BME280;59838;52.152;5.436;2023-02-28T13:44:07;103244.91;;;5.83;45.61
71970;BME280;59838;52.152;5.436;2023-02-28T13:51:50;103239.84;;;5.82;45.90
71970;BME280;59838;52.152;5.436;2023-02-28T13:54:24;103228.94;;;5.91;46.41
71970;BME280;59838;52.152;5.436;2023-02-28T13:57:04;103222.41;;;5.85;44.87
71970;BME280;59838;52.152;5.436;2023-02-28T14:00:02;103227.50;;;5.87;46.44
71970;BME280;59838;52.152;5.436;2023-02-28T14:05:06;103222.09;;;6.06;46.74
71970;BME280;59838;52.152;5.436;2023-02-28T14:07:50;103217.00;;;6.04;45.02
71970;BME280;59838;52.152;5.436;2023-02-28T14:13:01;103215.53;;;6.00;45.05
71970;BME280;59838;52.152;5.436;2023-02-28T14:18:24;103217.53;;;5.95;45.99
71970;BME280;59838;52.152;5.436;2023-02-28T14:20:58;103202.88;;;5.96;45.30
71970;BME280;59838;52.152;5.436;2023-02-28T14:26:25;103202.97;;;6.09;46.15
71970;BME280;59838;52.152;5.436;2023-02-28T14:29:18;103217.19;;;6.01;46.81
71970;BME280;59838;52.152;5.436;2023-02-28T14:31:57;103197.66;;;5.97;44.89
71970;BME280;59838;52.152;5.436;2023-02-28T14:34:52;103196.66;;;6.00;44.27
71970;BME280;59838;52.152;5.436;2023-02-28T14:37:33;103197.81;;;5.94;46.19
71970;BME280;59838;52.152;5.436;2023-02-28T14:40:03;103199.13;;;6.01;46.08
71970;BME280;59838;52.152;5.436;2023-02-28T14:42:35;103198.75;;;5.93;46.74
71970;BME280;59838;52.152;5.436;2023-02-28T14:45:04;103200.13;;;5.84;45.71
71970;BME280;59838;52.152;5.436;2023-02-28T14:47:32;103201.69;;;5.87;46.44
71970;BME280;59838;52.152;5.436;2023-02-28T14:50:01;103201.31;;;5.93;47.17
71970;BME280;59838;52.152;5.436;2023-02-28T14:52:29;103198.28;;;5.86;44.39
71970;BME280;59838;52.152;5.436;2023-02-28T14:55:00;103193.22;;;5.85;43.82
71970;BME280;59838;52.152;5.436;2023-02-28T14:57:30;103196.06;;;5.95;47.38
71970;BME280;59838;52.152;5.436;2023-02-28T15:00:21;103200.47;;;5.93;44.89
71970;BME280;59838;52.152;5.436;2023-02-28T15:02:49;103200.88;;;5.86;45.56
71970;BME280;59838;52.152;5.436;2023-02-28T15:05:29;103198.38;;;5.85;44.67
71970;BME280;59838;52.152;5.436;2023-02-28T15:08:11;103200.28;;;5.81;47.00